< Typhoon 201617 2016 Season Typhoon 201619 >
Typhoon 201618 (CHABA)
General InformationTrack Information on Google MapsDetailed Wind InformationForecast History on Google MapsAccess Analytics MapList of All Images || NewsDisaster Info.WeblogTrackbackTyphoon FrontTwiphoonTyphoon Now!Typhoon ImaginationDisaster Info. XMLResourceGoogle EarthGE AnimationAtom FeedGeoJSON
Detalied Best Track (Time Zone = UTC)
Year Month Day Hour Lat. Long. Pressure (hPa) Wind (kt) Class Image Chart
2016 9 24 18 14.9 164.6 1008 0 2 Image Chart
2016 9 25 00 14.5 163.4 1008 0 2 Image Chart
2016 9 25 06 14.7 162.2 1008 0 2 Image Chart
2016 9 25 12 15.1 161.0 1008 0 2 Image Chart
2016 9 25 18 15.6 160.0 1008 0 2 Image Chart
2016 9 26 00 15.9 159.0 1008 0 2 Image Chart
2016 9 26 06 15.9 158.0 1008 0 2 Image Chart
2016 9 26 12 15.8 156.2 1008 0 2 Image Chart
2016 9 26 18 15.3 154.5 1008 0 2 Image Chart
2016 9 27 00 14.6 153.3 1008 0 2 Image Chart
2016 9 27 06 14.4 152.0 1006 0 2 Image Chart
2016 9 27 12 14.3 151.0 1004 0 2 Image Chart
2016 9 27 18 14.3 149.8 1004 0 2 Image Chart
2016 9 28 00 14.4 148.1 1004 0 2 Image Chart
2016 9 28 06 14.4 146.5 1004 0 2 Image Chart
2016 9 28 12 14.5 145.5 1004 0 2 Image Chart
2016 9 28 18 14.4 144.4 1002 0 2 Image Chart
2016 9 29 00 14.3 143.4 1002 0 2 Image Chart
2016 9 29 06 13.7 141.8 1000 35 3 Image Chart
2016 9 29 12 13.5 140.5 1000 35 3 Image Chart
2016 9 29 18 13.4 139.2 992 45 3 Image Chart
2016 9 30 00 13.8 138.1 990 50 4 Image Chart
2016 9 30 06 14.3 137.4 990 50 4 Image Chart
2016 9 30 12 14.8 136.7 990 50 4 Image Chart
2016 9 30 18 15.4 136.0 985 55 4 Image Chart
2016 10 1 00 16.1 135.2 985 55 4 Image Chart
2016 10 1 06 16.8 134.4 980 60 4 Image Chart
2016 10 1 12 17.6 133.4 970 70 5 Image Chart
2016 10 1 18 18.5 132.6 955 80 5 Image Chart
2016 10 2 00 19.7 131.5 935 95 5 Image Chart
2016 10 2 06 20.8 130.4 935 95 5 Image Chart
2016 10 2 12 21.8 129.2 935 95 5 Image Chart
2016 10 2 18 22.8 128.3 935 95 5 Image Chart
2016 10 2 21 23.3 127.9 935 95 5 Image Chart
2016 10 3 00 23.8 127.6 925 100 5 Image Chart
2016 10 3 03 24.5 127.3 925 100 5 Image Chart
2016 10 3 06 24.9 127.0 915 110 5 Image Chart
2016 10 3 09 25.4 126.9 905 115 5 Image Chart
2016 10 3 12 25.8 126.8 905 115 5 Image Chart
2016 10 3 15 26.2 126.6 905 115 5 Image Chart
2016 10 3 18 26.8 126.4 910 110 5 Image Chart
2016 10 3 21 27.3 126.3 920 100 5 Image Chart
2016 10 4 00 27.9 126.2 925 95 5 Image Chart
2016 10 4 03 28.5 126.1 925 95 5 Image Chart
2016 10 4 06 29.4 126.0 940 85 5 Image Chart
2016 10 4 09 30.2 125.9 950 80 5 Image Chart
2016 10 4 12 31.0 126.0 950 80 5 Image Chart
2016 10 4 15 31.7 126.3 960 75 5 Image Chart
2016 10 4 18 32.7 126.6 965 70 5 Image Chart
2016 10 4 21 33.3 127.2 965 70 5 Image Chart
2016 10 5 00 34.4 128.1 970 65 5 Image Chart
2016 10 5 03 35.4 129.4 985 55 4 Image Chart
2016 10 5 06 36.1 131.1 990 50 4 Image Chart
2016 10 5 09 37.3 133.8 992 45 3 Image Chart
2016 10 5 12 38.7 136.7 996 0 6 Image Chart
2016 10 5 18 39.4 143.4 998 0 6 Image Chart
2016 10 6 00 41.1 148.8 992 0 6 Image Chart
2016 10 6 06 41.8 153.5 988 0 6 Image Chart
2016 10 6 12 42.9 158.7 984 0 6 Image Chart
2016 10 6 18 44.2 164.2 980 0 6 Image Chart
2016 10 7 00 45.7 170.0 972 0 6 Image Chart
2016 10 7 06 47.8 175.1 960 0 6 Image Chart
2016 10 7 12 50.2 179.2 956 0 6 Image Chart
2016 10 7 18 52.0 182.4 956 0 6 Image Chart
Japan Meteorological Agency Best Track Data | Correction Date : 2016-11-01
< Typhoon 201617 2016 Season Typhoon 201619 >

Help